Wesco, Missouri
Current Conditions -  °F | °C
As of 2:53 PM on Thursday 18 Dec 2014 (Local Time) from KVIH Reporting Station
Light Snow Light Snow  
Wind Chill: 29°   Ceiling: 300
Heat Index: 33°   Visibility: 2mi
Dew Point: 31°   Wind: 5mph
Humidity: 92%   Direction: 100°E
Pressure: 30.16"   Gusts: NA
Location:  37.86°N, 91.43°W
Report Text: KVIH 182053Z AUTO 10004KT 2SM -SN BR OVC003 01/M01 A3016 RMK AO2 SNB41 SLP223 P0000 60000 T00061006 56011
Loading
Personal Weather Stations






























Interactive Weather Map New forecast layout! Learn more

10-Day Weather Forecast

Advertisements
Track Severe Weather on mobile